sensor_id;sensor_type;location;lat;lon;timestamp;pressure;altitude;pressure_sealevel;temperature;humidity
26839;BME280;40088;51.214;6.786;2023-04-28T00:06:37;101033.88;;;18.08;47.32
26839;BME280;40088;51.214;6.786;2023-04-28T00:16:37;101014.38;;;18.10;47.59
26839;BME280;40088;51.214;6.786;2023-04-28T00:26:38;100996.09;;;18.09;47.75
26839;BME280;40088;51.214;6.786;2023-04-28T00:36:38;100988.72;;;18.09;47.85
26839;BME280;40088;51.214;6.786;2023-04-28T00:46:38;100986.13;;;18.08;47.86
26839;BME280;40088;51.214;6.786;2023-04-28T00:56:57;100975.94;;;18.08;48.14
26839;BME280;40088;51.214;6.786;2023-04-28T01:06:59;100968.72;;;18.07;48.30
26839;BME280;40088;51.214;6.786;2023-04-28T01:16:59;100966.81;;;18.08;48.44
26839;BME280;40088;51.214;6.786;2023-04-28T01:27:00;100971.50;;;18.07;48.38
26839;BME280;40088;51.214;6.786;2023-04-28T01:37:00;100968.72;;;18.07;48.42
26839;BME280;40088;51.214;6.786;2023-04-28T01:47:01;100958.75;;;18.06;48.60
26839;BME280;40088;51.214;6.786;2023-04-28T01:57:01;100953.25;;;18.06;48.79
26839;BME280;40088;51.214;6.786;2023-04-28T02:07:02;100935.00;;;18.05;49.05
26839;BME280;40088;51.214;6.786;2023-04-28T02:17:02;100920.38;;;18.05;48.91
26839;BME280;40088;51.214;6.786;2023-04-28T02:27:04;100922.28;;;18.04;49.03
26839;BME280;40088;51.214;6.786;2023-04-28T02:37:04;100935.84;;;18.06;49.12
26839;BME280;40088;51.214;6.786;2023-04-28T02:47:05;100926.06;;;18.03;49.22
26839;BME280;40088;51.214;6.786;2023-04-28T02:57:05;100917.59;;;18.05;49.31
26839;BME280;40088;51.214;6.786;2023-04-28T03:07:06;100917.78;;;18.03;49.37
26839;BME280;40088;51.214;6.786;2023-04-28T03:17:06;100901.91;;;18.05;49.38
26839;BME280;40088;51.214;6.786;2023-04-28T03:27:07;100892.78;;;18.05;49.33
26839;BME280;40088;51.214;6.786;2023-04-28T03:37:07;100867.13;;;18.04;49.64
26839;BME280;40088;51.214;6.786;2023-04-28T03:47:08;100859.69;;;18.05;49.67
26839;BME280;40088;51.214;6.786;2023-04-28T03:57:09;100826.78;;;18.03;49.57
26839;BME280;40088;51.214;6.786;2023-04-28T04:07:10;100820.44;;;18.03;49.68
26839;BME280;40088;51.214;6.786;2023-04-28T04:17:10;100795.63;;;18.03;49.70
26839;BME280;40088;51.214;6.786;2023-04-28T04:27:10;100806.63;;;18.03;49.75
26839;BME280;40088;51.214;6.786;2023-04-28T04:37:11;100813.00;;;18.03;49.76
26839;BME280;40088;51.214;6.786;2023-04-28T04:47:11;100788.19;;;18.03;49.95
26839;BME280;40088;51.214;6.786;2023-04-28T04:57:12;100801.97;;;18.03;49.88
26839;BME280;40088;51.214;6.786;2023-04-28T05:07:13;100817.66;;;18.03;49.98
26839;BME280;40088;51.214;6.786;2023-04-28T05:17:13;100806.63;;;18.03;49.96
26839;BME280;40088;51.214;6.786;2023-04-28T05:27:13;100802.19;;;18.02;50.11
26839;BME280;40088;51.214;6.786;2023-04-28T05:37:14;100804.09;;;18.01;50.11
26839;BME280;40088;51.214;6.786;2023-04-28T05:47:14;100782.03;;;18.01;50.17
26839;BME280;40088;51.214;6.786;2023-04-28T05:57:14;100775.47;;;18.02;50.31
26839;BME280;40088;51.214;6.786;2023-04-28T06:07:15;100763.59;;;18.02;50.25
26839;BME280;40088;51.214;6.786;2023-04-28T06:17:15;100762.72;;;18.01;50.32
26839;BME280;40088;51.214;6.786;2023-04-28T06:27:15;100757.22;;;18.01;50.35
26839;BME280;40088;51.214;6.786;2023-04-28T06:37:16;100772.69;;;18.02;50.32
26839;BME280;40088;51.214;6.786;2023-04-28T06:47:16;100769.72;;;18.04;50.42
26839;BME280;40088;51.214;6.786;2023-04-28T06:57:16;100762.53;;;18.03;50.44
26839;BME280;40088;51.214;6.786;2023-04-28T07:07:16;100772.69;;;18.02;50.41
26839;BME280;40088;51.214;6.786;2023-04-28T07:17:17;100776.31;;;18.03;50.44
26839;BME280;40088;51.214;6.786;2023-04-28T07:27:17;100773.56;;;18.03;50.49
26839;BME280;40088;51.214;6.786;2023-04-28T07:37:17;100779.06;;;18.03;50.62
26839;BME280;40088;51.214;6.786;2023-04-28T07:47:18;100783.72;;;18.02;50.60
26839;BME280;40088;51.214;6.786;2023-04-28T07:57:18;100777.16;;;18.03;50.53
26839;BME280;40088;51.214;6.786;2023-04-28T08:07:19;100761.69;;;18.02;50.78
26839;BME280;40088;51.214;6.786;2023-04-28T08:17:19;100759.97;;;18.01;50.78
26839;BME280;40088;51.214;6.786;2023-04-28T08:27:19;100756.16;;;18.02;50.77
26839;BME280;40088;51.214;6.786;2023-04-28T08:37:20;100764.44;;;18.02;50.59
26839;BME280;40088;51.214;6.786;2023-04-28T08:47:21;100776.31;;;18.03;50.85
26839;BME280;40088;51.214;6.786;2023-04-28T08:57:22;100774.63;;;18.02;51.01
26839;BME280;40088;51.214;6.786;2023-04-28T09:07:22;100781.81;;;18.03;51.00
26839;BME280;40088;51.214;6.786;2023-04-28T09:17:22;100772.69;;;18.02;51.09
26839;BME280;40088;51.214;6.786;2023-04-28T09:27:27;100771.00;;;18.01;51.18
26839;BME280;40088;51.214;6.786;2023-04-28T09:37:28;100755.31;;;18.02;51.24
26839;BME280;40088;51.214;6.786;2023-04-28T09:47:32;100767.19;;;18.02;51.13
26839;BME280;40088;51.214;6.786;2023-04-28T09:57:35;100765.50;;;18.01;51.22
26839;BME280;40088;51.214;6.786;2023-04-28T10:07:35;100765.50;;;18.01;51.18
26839;BME280;40088;51.214;6.786;2023-04-28T10:17:37;100767.19;;;18.02;51.31
26839;BME280;40088;51.214;6.786;2023-04-28T10:27:40;100761.69;;;18.02;51.36
26839;BME280;40088;51.214;6.786;2023-04-28T10:38:09;100759.97;;;18.01;51.52
26839;BME280;40088;51.214;6.786;2023-04-28T10:48:11;100750.66;;;18.02;51.49
26839;BME280;40088;51.214;6.786;2023-04-28T11:18:20;100747.88;;;18.02;51.66
26839;BME280;40088;51.214;6.786;2023-04-28T11:28:21;100741.53;;;18.02;51.85
26839;BME280;40088;51.214;6.786;2023-04-28T11:38:22;100736.84;;;18.02;51.87
26839;BME280;40088;51.214;6.786;2023-04-28T11:48:22;100728.59;;;18.02;51.92
26839;BME280;40088;51.214;6.786;2023-04-28T11:58:22;100731.34;;;18.02;51.96
26839;BME280;40088;51.214;6.786;2023-04-28T12:08:27;100728.59;;;18.02;51.92
26839;BME280;40088;51.214;6.786;2023-04-28T12:18:28;100717.56;;;18.02;52.01
26839;BME280;40088;51.214;6.786;2023-04-28T12:28:38;100712.03;;;18.02;52.15
26839;BME280;40088;51.214;6.786;2023-04-28T12:38:46;100700.16;;;18.02;51.99
26839;BME280;40088;51.214;6.786;2023-04-28T12:48:46;100709.28;;;18.02;52.20
26839;BME280;40088;51.214;6.786;2023-04-28T12:58:47;100701.00;;;18.02;52.24
26839;BME280;40088;51.214;6.786;2023-04-28T13:08:47;100690.84;;;18.03;52.39
26839;BME280;40088;51.214;6.786;2023-04-28T13:18:48;100672.59;;;18.02;52.38
26839;BME280;40088;51.214;6.786;2023-04-28T13:28:50;100667.94;;;18.02;52.66
26839;BME280;40088;51.214;6.786;2023-04-28T13:38:51;100646.94;;;18.01;52.16
26839;BME280;40088;51.214;6.786;2023-04-28T13:48:51;100640.56;;;18.01;52.41
26839;BME280;40088;51.214;6.786;2023-04-28T13:58:51;100656.06;;;18.02;52.52
26839;BME280;40088;51.214;6.786;2023-04-28T14:08:52;100641.41;;;18.01;52.64
26839;BME280;40088;51.214;6.786;2023-04-28T14:18:52;100620.22;;;18.02;52.53
26839;BME280;40088;51.214;6.786;2023-04-28T14:28:52;100638.66;;;18.01;52.72
26839;BME280;40088;51.214;6.786;2023-04-28T14:38:53;100638.66;;;18.01;52.75
26839;BME280;40088;51.214;6.786;2023-04-28T14:48:53;100662.63;;;18.01;52.79
26839;BME280;40088;51.214;6.786;2023-04-28T14:58:54;100647.16;;;18.00;52.92
26839;BME280;40088;51.214;6.786;2023-04-28T15:08:54;100679.16;;;18.01;52.76
26839;BME280;40088;51.214;6.786;2023-04-28T15:18:54;100696.56;;;18.01;53.00
26839;BME280;40088;51.214;6.786;2023-04-28T15:28:55;100739.84;;;18.01;52.90
26839;BME280;40088;51.214;6.786;2023-04-28T15:38:55;100753.63;;;18.01;52.87
26839;BME280;40088;51.214;6.786;2023-04-28T15:48:55;100765.50;;;18.01;52.98
26839;BME280;40088;51.214;6.786;2023-04-28T15:58:56;100759.97;;;18.01;53.10
26839;BME280;40088;51.214;6.786;2023-04-28T16:08:56;100769.09;;;18.02;53.08
26839;BME280;40088;51.214;6.786;2023-04-28T16:18:57;100776.53;;;18.01;53.07
26839;BME280;40088;51.214;6.786;2023-04-28T16:28:57;100807.91;;;18.00;53.23
26839;BME280;40088;51.214;6.786;2023-04-28T16:38:57;100815.97;;;18.02;53.26
26839;BME280;40088;51.214;6.786;2023-04-28T16:48:58;100804.09;;;18.01;53.17
26839;BME280;40088;51.214;6.786;2023-04-28T16:58:58;100807.91;;;18.00;53.25
26839;BME280;40088;51.214;6.786;2023-04-28T17:08:58;100814.28;;;18.01;53.23
26839;BME280;40088;51.214;6.786;2023-04-28T17:18:59;100825.31;;;18.01;53.37
26839;BME280;40088;51.214;6.786;2023-04-28T17:29:00;100822.53;;;18.01;53.24
26839;BME280;40088;51.214;6.786;2023-04-28T17:39:01;100828.06;;;18.01;53.26
26839;BME280;40088;51.214;6.786;2023-04-28T17:49:03;100837.19;;;18.01;53.31
26839;BME280;40088;51.214;6.786;2023-04-28T17:59:04;100846.50;;;18.00;53.33
26839;BME280;40088;51.214;6.786;2023-04-28T18:09:04;100857.53;;;18.00;53.45
26839;BME280;40088;51.214;6.786;2023-04-28T18:19:05;100859.25;;;18.01;53.54
26839;BME280;40088;51.214;6.786;2023-04-28T18:29:05;100874.94;;;18.01;53.26
26839;BME280;40088;51.214;6.786;2023-04-28T18:39:05;100870.28;;;18.01;53.44
26839;BME280;40088;51.214;6.786;2023-04-28T18:49:06;100882.34;;;18.00;53.46
26839;BME280;40088;51.214;6.786;2023-04-28T18:59:06;100882.34;;;18.00;53.54
26839;BME280;40088;51.214;6.786;2023-04-28T19:09:07;100871.31;;;18.00;53.52
26839;BME280;40088;51.214;6.786;2023-04-28T19:19:08;100876.84;;;18.00;53.67
26839;BME280;40088;51.214;6.786;2023-04-28T19:29:08;100885.13;;;18.00;53.61
26839;BME280;40088;51.214;6.786;2023-04-28T19:39:08;100906.31;;;18.00;53.69
26839;BME280;40088;51.214;6.786;2023-04-28T19:49:09;100899.97;;;17.99;53.79
26839;BME280;40088;51.214;6.786;2023-04-28T19:59:09;100908.22;;;17.99;53.73
26839;BME280;40088;51.214;6.786;2023-04-28T20:09:09;100915.44;;;18.00;53.93
26839;BME280;40088;51.214;6.786;2023-04-28T20:19:10;100917.34;;;18.00;53.83
26839;BME280;40088;51.214;6.786;2023-04-28T20:29:11;100919.25;;;17.99;53.85
26839;BME280;40088;51.214;6.786;2023-04-28T20:39:11;100927.53;;;17.99;53.86
26839;BME280;40088;51.214;6.786;2023-04-28T20:49:12;100922.00;;;17.99;53.87
26839;BME280;40088;51.214;6.786;2023-04-28T20:59:12;100922.88;;;18.00;53.91
26839;BME280;40088;51.214;6.786;2023-04-28T21:09:12;100934.06;;;17.98;53.91
26839;BME280;40088;51.214;6.786;2023-04-28T21:19:13;100934.06;;;17.98;53.93
26839;BME280;40088;51.214;6.786;2023-04-28T21:29:13;100941.31;;;17.99;54.01
26839;BME280;40088;51.214;6.786;2023-04-28T21:39:14;100958.88;;;17.98;54.09
26839;BME280;40088;51.214;6.786;2023-04-28T21:49:14;100948.72;;;17.99;54.03
26839;BME280;40088;51.214;6.786;2023-04-28T21:59:15;100947.00;;;17.98;54.12
26839;BME280;40088;51.214;6.786;2023-04-28T22:09:16;100955.28;;;17.98;54.04
26839;BME280;40088;51.214;6.786;2023-04-28T22:19:17;100952.53;;;17.98;54.27
26839;BME280;40088;51.214;6.786;2023-04-28T22:29:17;100968.22;;;17.97;54.05
26839;BME280;40088;51.214;6.786;2023-04-28T22:39:17;100978.19;;;17.98;54.43
26839;BME280;40088;51.214;6.786;2023-04-28T22:49:18;100982.84;;;17.98;54.24
26839;BME280;40088;51.214;6.786;2023-04-28T22:59:23;100992.19;;;17.96;54.39
26839;BME280;40088;51.214;6.786;2023-04-28T23:09:25;100996.84;;;17.96;54.43
26839;BME280;40088;51.214;6.786;2023-04-28T23:19:25;100994.09;;;17.96;54.32
26839;BME280;40088;51.214;6.786;2023-04-28T23:29:25;101002.34;;;17.96;54.43
26839;BME280;40088;51.214;6.786;2023-04-28T23:39:26;101002.34;;;17.96;54.51
26839;BME280;40088;51.214;6.786;2023-04-28T23:49:28;101008.09;;;17.94;54.47
26839;BME280;40088;51.214;6.786;2023-04-28T23:59:29;101011.69;;;17.95;54.37
